Time,TemperatureF,DewpointF,PressureIn,WindDirection,WindDirectionDegrees,WindSpeedMPH,WindSpeedGustMPH,Humidity,HourlyPrecipIn,Conditions,Clouds,dailyrainin,SoftwareType,DateUTC
2012-12-03 00:03:00,44.6,43.0,29.77,WSW,248,3.4,7.2,94,0.00,,,0.00,WUHU216HW,2012-12-03 08:03:00,
2012-12-03 00:08:00,44.8,43.2,29.77,SW,225,2.9,7.2,94,0.01,,,0.01,WUHU216HW,2012-12-03 08:08:00,
2012-12-03 00:13:00,44.8,43.2,29.77,SW,225,2.5,5.8,94,0.01,,,0.01,WUHU216HW,2012-12-03 08:13:00,
2012-12-03 00:18:00,45.0,43.4,29.77,SSW,203,5.4,7.6,94,0.01,,,0.01,WUHU216HW,2012-12-03 08:18:00,
2012-12-03 00:23:00,45.2,43.6,29.76,South,180,1.8,7.6,94,0.01,,,0.01,WUHU216HW,2012-12-03 08:23:00,
2012-12-03 00:28:00,45.2,43.6,29.76,WNW,293,3.6,7.6,94,0.01,,,0.01,WUHU216HW,2012-12-03 08:28:00,
2012-12-03 00:33:00,45.4,43.7,29.76,WSW,248,2.9,5.6,94,0.02,,,0.01,WUHU216HW,2012-12-03 08:33:00,
2012-12-03 00:38:00,45.4,44.0,29.76,SSW,203,4.7,6.3,95,0.02,,,0.01,WUHU216HW,2012-12-03 08:38:00,
2012-12-03 00:43:00,45.4,44.0,29.76,SW,225,1.3,7.6,95,0.02,,,0.01,WUHU216HW,2012-12-03 08:43:00,
2012-12-03 00:48:00,45.4,44.0,29.76,WSW,248,7.8,9.2,95,0.02,,,0.01,WUHU216HW,2012-12-03 08:48:00,
2012-12-03 00:53:00,45.5,44.2,29.76,WSW,248,7.6,9.2,95,0.02,,,0.01,WUHU216HW,2012-12-03 08:53:00,
2012-12-03 00:58:00,45.5,44.2,29.76,SE,135,4.3,8.7,95,0.02,,,0.01,WUHU216HW,2012-12-03 08:58:00,
2012-12-03 01:03:00,45.5,44.2,29.76,SSW,203,2.2,8.5,95,0.01,,,0.01,WUHU216HW,2012-12-03 09:03:00,
2012-12-03 01:08:00,45.7,44.4,29.76,SSW,203,5.4,11.9,95,0.01,,,0.01,WUHU216HW,2012-12-03 09:08:00,
2012-12-03 01:13:00,45.7,44.4,29.76,WSW,248,5.4,11.9,95,0.02,,,0.03,WUHU216HW,2012-12-03 09:13:00,
2012-12-03 01:18:00,45.7,44.4,29.76,SSW,203,5.1,14.3,95,0.02,,,0.03,WUHU216HW,2012-12-03 09:18:00,
2012-12-03 01:23:00,45.7,44.4,29.76,SW,225,4.7,14.3,95,0.02,,,0.03,WUHU216HW,2012-12-03 09:23:00,
2012-12-03 01:28:00,45.7,44.4,29.76,West,270,3.8,8.5,95,0.01,,,0.03,WUHU216HW,2012-12-03 09:28:00,
2012-12-03 01:33:00,45.9,44.6,29.76,SW,225,7.6,8.3,95,0.01,,,0.03,WUHU216HW,2012-12-03 09:33:00,
2012-12-03 01:38:00,45.9,44.6,29.76,West,270,8.9,8.9,95,0.01,,,0.03,WUHU216HW,2012-12-03 09:38:00,
2012-12-03 01:43:00,45.9,44.6,29.76,South,180,2.5,9.6,95,0.01,,,0.03,WUHU216HW,2012-12-03 09:43:00,
2012-12-03 01:48:00,45.9,44.6,29.77,SSW,203,9.2,9.6,95,0.02,,,0.04,WUHU216HW,2012-12-03 09:48:00,
2012-12-03 01:53:00,45.9,44.6,29.76,SW,225,8.5,10.5,95,0.02,,,0.04,WUHU216HW,2012-12-03 09:53:00,
2012-12-03 01:58:00,45.9,44.6,29.77,WNW,293,4.5,10.5,95,0.02,,,0.04,WUHU216HW,2012-12-03 09:58:00,
2012-12-03 02:03:00,45.9,44.6,29.77,South,180,4.3,14.1,95,0.02,,,0.04,WUHU216HW,2012-12-03 10:03:00,
2012-12-03 02:08:00,45.9,44.6,29.77,SSW,203,8.5,14.1,95,0.01,,,0.04,WUHU216HW,2012-12-03 10:08:00,
2012-12-03 02:13:00,45.7,44.4,29.77,WSW,248,10.3,10.7,95,0.01,,,0.04,WUHU216HW,2012-12-03 10:13:00,
2012-12-03 02:18:00,45.7,44.4,29.78,WSW,248,7.2,12.8,95,0.01,,,0.04,WUHU216HW,2012-12-03 10:18:00,
2012-12-03 02:23:00,45.5,43.9,29.78,SW,225,6.0,12.8,94,0.01,,,0.04,WUHU216HW,2012-12-03 10:23:00,
2012-12-03 02:28:00,45.4,43.7,29.77,SSW,203,3.4,12.1,94,0.01,,,0.04,WUHU216HW,2012-12-03 10:28:00,
2012-12-03 02:33:00,45.4,43.7,29.77,WSW,248,2.9,12.1,94,0.01,,,0.04,WUHU216HW,2012-12-03 10:33:00,
2012-12-03 02:38:00,45.4,43.7,29.77,North,0,4.7,11.6,94,0.01,,,0.04,WUHU216HW,2012-12-03 10:38:00,
2012-12-03 02:43:00,45.2,43.6,29.78,SW,225,7.6,10.7,94,0.01,,,0.04,WUHU216HW,2012-12-03 10:43:00,
2012-12-03 02:48:00,45.2,43.6,29.78,SSW,203,5.4,13.2,94,0.00,,,0.04,WUHU216HW,2012-12-03 10:48:00,
2012-12-03 02:53:00,45.2,43.6,29.77,SSE,158,3.4,13.2,94,0.00,,,0.04,WUHU216HW,2012-12-03 10:53:00,
2012-12-03 02:58:00,45.2,43.6,29.78,SW,225,7.6,12.5,94,0.00,,,0.04,WUHU216HW,2012-12-03 10:58:00,
2012-12-03 03:03:00,45.4,43.7,29.78,SW,225,4.5,11.0,94,0.00,,,0.04,WUHU216HW,2012-12-03 11:03:00,
2012-12-03 03:08:00,45.4,43.7,29.79,SW,225,2.7,11.9,94,0.00,,,0.04,WUHU216HW,2012-12-03 11:08:00,
2012-12-03 03:13:00,45.5,43.9,29.79,SW,225,2.9,12.8,94,0.00,,,0.04,WUHU216HW,2012-12-03 11:13:00,
2012-12-03 03:18:00,45.5,43.9,29.79,SW,225,7.2,12.8,94,0.00,,,0.04,WUHU216HW,2012-12-03 11:18:00,
2012-12-03 03:23:00,45.5,43.9,29.79,SSE,158,3.8,10.1,94,0.00,,,0.04,WUHU216HW,2012-12-03 11:23:00,
2012-12-03 03:28:00,45.7,44.1,29.80,SSW,203,5.4,10.1,94,0.00,,,0.04,WUHU216HW,2012-12-03 11:28:00,
2012-12-03 03:33:00,45.7,44.1,29.80,SSW,203,4.7,8.5,94,0.00,,,0.04,WUHU216HW,2012-12-03 11:33:00,
2012-12-03 03:38:00,45.7,44.1,29.80,SW,225,6.9,8.9,94,0.00,,,0.04,WUHU216HW,2012-12-03 11:38:00,
2012-12-03 03:43:00,45.7,44.1,29.80,WSW,248,7.2,10.1,94,0.00,,,0.04,WUHU216HW,2012-12-03 11:43:00,
2012-12-03 03:48:00,45.7,44.1,29.81,South,180,4.7,10.1,94,0.00,,,0.04,WUHU216HW,2012-12-03 11:48:00,
2012-12-03 03:53:00,45.7,44.1,29.81,SW,225,1.6,9.4,94,0.00,,,0.04,WUHU216HW,2012-12-03 11:53:00,
2012-12-03 03:58:00,45.7,44.1,29.81,SW,225,4.7,9.4,94,0.00,,,0.04,WUHU216HW,2012-12-03 11:58:00,
2012-12-03 04:03:00,45.7,44.1,29.81,NE,45,1.8,9.4,94,0.00,,,0.04,WUHU216HW,2012-12-03 12:03:00,
2012-12-03 04:08:00,45.7,44.1,29.81,SW,225,12.1,14.8,94,0.00,,,0.04,WUHU216HW,2012-12-03 12:08:00,
2012-12-03 04:13:00,45.7,44.1,29.81,WSW,248,2.5,14.8,94,0.00,,,0.04,WUHU216HW,2012-12-03 12:13:00,
2012-12-03 04:18:00,45.7,44.1,29.81,SW,225,6.0,12.1,94,0.00,,,0.04,WUHU216HW,2012-12-03 12:18:00,
2012-12-03 04:23:00,45.7,44.1,29.81,SW,225,10.1,10.1,94,0.01,,,0.05,WUHU216HW,2012-12-03 12:23:00,
2012-12-03 04:28:00,45.7,44.1,29.82,WSW,248,3.8,10.1,94,0.03,,,0.07,WUHU216HW,2012-12-03 12:28:00,
2012-12-03 04:33:00,45.7,44.1,29.82,WSW,248,4.0,10.1,94,0.06,,,0.10,WUHU216HW,2012-12-03 12:33:00,
2012-12-03 04:38:00,45.7,44.1,29.82,SW,225,12.8,12.8,94,0.08,,,0.12,WUHU216HW,2012-12-03 12:38:00,
2012-12-03 04:43:00,45.7,44.1,29.83,SSE,158,3.8,12.8,94,0.11,,,0.15,WUHU216HW,2012-12-03 12:43:00,
2012-12-03 04:48:00,45.7,44.4,29.83,SSW,203,9.8,15.0,95,0.13,,,0.17,WUHU216HW,2012-12-03 12:48:00,
2012-12-03 04:53:00,45.7,44.1,29.83,SSW,203,3.4,15.0,94,0.15,,,0.19,WUHU216HW,2012-12-03 12:53:00,
2012-12-03 04:58:00,45.7,44.4,29.84,South,180,5.4,13.4,95,0.18,,,0.22,WUHU216HW,2012-12-03 12:58:00,
2012-12-03 05:03:00,45.7,44.4,29.83,SW,225,6.3,13.4,95,0.20,,,0.24,WUHU216HW,2012-12-03 13:03:00,
2012-12-03 05:08:00,45.5,44.2,29.83,SW,225,11.2,11.2,95,0.21,,,0.25,WUHU216HW,2012-12-03 13:08:00,
2012-12-03 05:13:00,45.4,43.7,29.84,WSW,248,2.5,11.2,94,0.22,,,0.26,WUHU216HW,2012-12-03 13:13:00,
2012-12-03 05:18:00,45.4,43.7,29.84,SW,225,10.3,11.2,94,0.22,,,0.27,WUHU216HW,2012-12-03 13:18:00,
2012-12-03 05:23:00,45.4,43.7,29.84,WSW,248,6.9,10.5,94,0.24,,,0.29,WUHU216HW,2012-12-03 13:23:00,
2012-12-03 05:28:00,45.2,43.6,29.85,SSW,203,4.9,10.5,94,0.22,,,0.31,WUHU216HW,2012-12-03 13:28:00,
2012-12-03 05:33:00,45.0,43.4,29.85,WSW,248,4.3,10.5,94,0.22,,,0.33,WUHU216HW,2012-12-03 13:33:00,
2012-12-03 05:38:00,45.0,43.4,29.84,West,270,4.0,6.7,94,0.21,,,0.34,WUHU216HW,2012-12-03 13:38:00,
2012-12-03 05:43:00,45.0,43.4,29.85,SW,225,3.4,8.5,94,0.20,,,0.35,WUHU216HW,2012-12-03 13:43:00,
2012-12-03 05:48:00,44.8,43.2,29.85,WSW,248,2.0,8.5,94,0.17,,,0.35,WUHU216HW,2012-12-03 13:48:00,
2012-12-03 05:53:00,44.8,43.2,29.85,SW,225,4.5,6.3,94,0.14,,,0.35,WUHU216HW,2012-12-03 13:53:00,
2012-12-03 05:58:00,44.8,43.2,29.86,SE,135,3.4,6.9,94,0.13,,,0.36,WUHU216HW,2012-12-03 13:58:00,
2012-12-03 06:03:00,44.6,43.0,29.85,WSW,248,3.8,6.9,94,0.13,,,0.37,WUHU216HW,2012-12-03 14:03:00,
2012-12-03 06:08:00,44.6,43.0,29.84,WSW,248,3.1,12.5,94,0.11,,,0.37,WUHU216HW,2012-12-03 14:08:00,
2012-12-03 06:13:00,44.6,43.3,29.85,South,180,5.4,12.5,95,0.10,,,0.37,WUHU216HW,2012-12-03 14:13:00,
2012-12-03 06:18:00,44.6,43.3,29.85,SW,225,0.9,6.3,95,0.09,,,0.37,WUHU216HW,2012-12-03 14:18:00,
2012-12-03 06:23:00,44.5,43.1,29.85,SSE,158,2.5,6.3,95,0.08,,,0.37,WUHU216HW,2012-12-03 14:23:00,
2012-12-03 06:28:00,44.5,43.1,29.85,SW,225,5.8,9.2,95,0.04,,,0.37,WUHU216HW,2012-12-03 14:28:00,
2012-12-03 06:33:00,44.5,43.1,29.86,SSW,203,2.2,9.2,95,0.03,,,0.37,WUHU216HW,2012-12-03 14:33:00,
2012-12-03 06:38:00,44.5,43.1,29.86,WSW,248,3.1,6.5,95,0.03,,,0.37,WUHU216HW,2012-12-03 14:38:00,
2012-12-03 06:43:00,44.3,42.9,29.86,WSW,248,2.2,8.7,95,0.02,,,0.37,WUHU216HW,2012-12-03 14:43:00,
2012-12-03 06:48:00,44.3,42.9,29.86,SSW,203,2.5,8.7,95,0.02,,,0.37,WUHU216HW,2012-12-03 14:48:00,
2012-12-03 06:53:00,44.3,42.9,29.86,SW,225,4.5,8.5,95,0.01,,,0.37,WUHU216HW,2012-12-03 14:53:00,
2012-12-03 06:58:00,44.3,42.9,29.86,SSW,203,5.8,7.6,95,0.01,,,0.37,WUHU216HW,2012-12-03 14:58:00,
2012-12-03 07:03:00,44.3,42.9,29.86,SSW,203,1.8,6.3,95,0.00,,,0.37,WUHU216HW,2012-12-03 15:03:00,
2012-12-03 07:08:00,44.3,42.9,29.87,WSW,248,2.5,7.6,95,0.00,,,0.37,WUHU216HW,2012-12-03 15:08:00,
2012-12-03 07:13:00,44.3,42.9,29.88,SW,225,3.8,7.6,95,0.00,,,0.37,WUHU216HW,2012-12-03 15:13:00,
2012-12-03 07:18:00,44.3,42.9,29.88,SW,225,3.4,7.2,95,0.00,,,0.37,WUHU216HW,2012-12-03 15:18:00,
2012-12-03 07:23:00,44.5,43.1,29.89,WSW,248,2.9,7.8,95,0.00,,,0.37,WUHU216HW,2012-12-03 15:23:00,
2012-12-03 07:28:00,44.5,43.1,29.89,SW,225,2.0,7.8,95,0.00,,,0.37,WUHU216HW,2012-12-03 15:28:00,
2012-12-03 07:33:00,44.5,43.1,29.89,West,270,0.4,4.0,95,0.00,,,0.37,WUHU216HW,2012-12-03 15:33:00,
2012-12-03 07:38:00,44.6,43.3,29.89,SSW,203,2.0,6.7,95,0.00,,,0.37,WUHU216HW,2012-12-03 15:38:00,
2012-12-03 07:43:00,44.6,43.3,29.89,SW,225,2.2,6.7,95,0.00,,,0.37,WUHU216HW,2012-12-03 15:43:00,
2012-12-03 07:48:00,44.6,43.3,29.89,SW,225,2.0,7.6,95,0.00,,,0.37,WUHU216HW,2012-12-03 15:48:00,
2012-12-03 07:53:00,44.6,43.3,29.89,SW,225,4.0,7.6,95,0.00,,,0.37,WUHU216HW,2012-12-03 15:53:00,
2012-12-03 07:58:00,44.6,43.3,29.89,WSW,248,4.5,5.4,95,0.00,,,0.37,WUHU216HW,2012-12-03 15:58:00,
2012-12-03 08:03:00,44.8,43.5,29.90,SW,225,0.9,5.4,95,0.00,,,0.37,WUHU216HW,2012-12-03 16:03:00,
2012-12-03 08:08:00,44.8,43.5,29.90,SE,135,1.1,6.0,95,0.00,,,0.37,WUHU216HW,2012-12-03 16:08:00,
2012-12-03 08:13:00,45.0,43.7,29.91,SW,225,3.4,6.0,95,0.00,,,0.37,WUHU216HW,2012-12-03 16:13:00,
2012-12-03 08:18:00,45.0,43.7,29.91,SW,225,0.9,5.6,95,0.00,,,0.37,WUHU216HW,2012-12-03 16:18:00,
2012-12-03 08:23:00,45.0,43.7,29.91,WSW,248,4.7,5.6,95,0.00,,,0.37,WUHU216HW,2012-12-03 16:23:00,
2012-12-03 08:28:00,45.0,43.7,29.91,WSW,248,1.8,4.9,95,0.00,,,0.37,WUHU216HW,2012-12-03 16:28:00,
2012-12-03 08:33:00,45.0,43.7,29.92,SE,135,0.4,4.7,95,0.00,,,0.37,WUHU216HW,2012-12-03 16:33:00,
2012-12-03 08:38:00,45.0,43.7,29.92,WSW,248,1.8,4.5,95,0.00,,,0.37,WUHU216HW,2012-12-03 16:38:00,
2012-12-03 08:43:00,45.0,43.7,29.91,WSW,248,1.8,5.8,95,0.00,,,0.37,WUHU216HW,2012-12-03 16:43:00,
2012-12-03 08:48:00,45.0,43.7,29.92,SW,225,2.0,6.3,95,0.00,,,0.37,WUHU216HW,2012-12-03 16:48:00,
2012-12-03 08:53:00,45.0,43.7,29.92,WSW,248,0.9,6.3,95,0.00,,,0.37,WUHU216HW,2012-12-03 16:53:00,
2012-12-03 08:58:00,45.0,43.7,29.92,WSW,248,1.8,4.3,95,0.00,,,0.37,WUHU216HW,2012-12-03 16:58:00,
2012-12-03 09:03:00,45.2,43.8,29.92,SSW,203,3.4,4.5,95,0.00,,,0.37,WUHU216HW,2012-12-03 17:03:00,
2012-12-03 09:08:00,45.2,43.8,29.93,WSW,248,0.9,4.5,95,0.00,,,0.37,WUHU216HW,2012-12-03 17:08:00,
2012-12-03 09:13:00,45.2,43.8,29.93,WSW,248,0.0,3.4,95,0.00,,,0.37,WUHU216HW,2012-12-03 17:13:00,
2012-12-03 09:18:00,45.2,43.8,29.93,SW,225,0.4,3.4,95,0.00,,,0.37,WUHU216HW,2012-12-03 17:18:00,
2012-12-03 09:23:00,45.2,43.8,29.93,SW,225,0.7,2.5,95,0.00,,,0.37,WUHU216HW,2012-12-03 17:23:00,
2012-12-03 09:28:00,45.4,44.0,29.93,SW,225,2.5,2.9,95,0.00,,,0.37,WUHU216HW,2012-12-03 17:28:00,
2012-12-03 09:33:00,45.4,44.0,29.94,SW,225,2.7,3.1,95,0.00,,,0.37,WUHU216HW,2012-12-03 17:33:00,
2012-12-03 09:38:00,45.4,44.0,29.93,SW,225,1.3,5.4,95,0.00,,,0.37,WUHU216HW,2012-12-03 17:38:00,
2012-12-03 09:43:00,45.5,44.2,29.94,SW,225,3.4,7.6,95,0.00,,,0.37,WUHU216HW,2012-12-03 17:43:00,
2012-12-03 09:48:00,45.5,44.2,29.94,WSW,248,2.0,7.6,95,0.00,,,0.37,WUHU216HW,2012-12-03 17:48:00,
2012-12-03 09:53:00,45.7,44.4,29.94,SSE,158,0.9,6.3,95,0.00,,,0.37,WUHU216HW,2012-12-03 17:53:00,
2012-12-03 09:58:00,45.7,44.4,29.94,ENE,68,0.9,6.3,95,0.00,,,0.37,WUHU216HW,2012-12-03 17:58:00,
2012-12-03 10:03:00,45.7,44.4,29.94,WSW,248,1.8,4.5,95,0.00,,,0.37,WUHU216HW,2012-12-03 18:03:00,
2012-12-03 10:08:00,45.9,44.6,29.94,West,270,3.4,5.4,95,0.00,,,0.37,WUHU216HW,2012-12-03 18:08:00,
2012-12-03 10:13:00,45.9,44.6,29.95,SW,225,3.6,5.4,95,0.00,,,0.37,WUHU216HW,2012-12-03 18:13:00,
2012-12-03 10:18:00,46.1,44.7,29.95,SW,225,1.6,4.9,95,0.00,,,0.37,WUHU216HW,2012-12-03 18:18:00,
2012-12-03 10:23:00,46.3,44.9,29.95,SW,225,5.4,6.3,95,0.00,,,0.37,WUHU216HW,2012-12-03 18:23:00,
2012-12-03 10:28:00,46.4,45.1,29.95,SW,225,3.6,6.3,95,0.00,,,0.37,WUHU216HW,2012-12-03 18:28:00,
2012-12-03 10:33:00,46.6,45.3,29.95,WSW,248,0.7,5.6,95,0.00,,,0.37,WUHU216HW,2012-12-03 18:33:00,
2012-12-03 10:38:00,46.8,45.5,29.95,SW,225,6.9,6.9,95,0.01,,,0.38,WUHU216HW,2012-12-03 18:38:00,
2012-12-03 10:43:00,46.8,45.5,29.96,SW,225,1.8,6.9,95,0.01,,,0.38,WUHU216HW,2012-12-03 18:43:00,
2012-12-03 10:48:00,47.0,45.6,29.96,WSW,248,3.4,6.3,95,0.01,,,0.38,WUHU216HW,2012-12-03 18:48:00,
2012-12-03 10:53:00,47.2,46.1,29.96,SW,225,2.9,6.3,96,0.01,,,0.38,WUHU216HW,2012-12-03 18:53:00,
2012-12-03 10:58:00,47.2,46.1,29.96,West,270,2.0,6.3,96,0.01,,,0.38,WUHU216HW,2012-12-03 18:58:00,
2012-12-03 11:03:00,47.3,46.3,29.96,SW,225,1.6,7.8,96,0.01,,,0.38,WUHU216HW,2012-12-03 19:03:00,
2012-12-03 11:08:00,47.3,46.3,29.96,SSE,158,1.1,7.8,96,0.01,,,0.38,WUHU216HW,2012-12-03 19:08:00,
2012-12-03 11:14:00,47.5,46.4,29.96,West,270,2.9,4.5,96,0.01,,,0.38,WUHU216HW,2012-12-03 19:14:00,
2012-12-03 11:19:00,47.5,46.4,29.96,SW,225,1.1,4.5,96,0.01,,,0.38,WUHU216HW,2012-12-03 19:19:00,
2012-12-03 11:24:00,47.5,46.4,29.96,WSW,248,0.9,4.0,96,0.01,,,0.38,WUHU216HW,2012-12-03 19:24:00,
2012-12-03 11:28:00,47.5,46.4,29.96,SW,225,2.2,4.0,96,0.01,,,0.38,WUHU216HW,2012-12-03 19:28:00,
2012-12-03 11:33:00,47.7,46.6,29.96,WSW,248,2.9,5.4,96,0.01,,,0.38,WUHU216HW,2012-12-03 19:33:00,
2012-12-03 11:38:00,47.7,46.6,29.96,SW,225,1.6,5.4,96,0.00,,,0.38,WUHU216HW,2012-12-03 19:38:00,
2012-12-03 11:43:00,47.9,46.8,29.96,SSW,203,1.3,4.9,96,0.00,,,0.38,WUHU216HW,2012-12-03 19:43:00,
2012-12-03 11:48:00,47.9,46.8,29.96,SW,225,1.8,2.5,96,0.00,,,0.38,WUHU216HW,2012-12-03 19:48:00,
2012-12-03 11:53:00,47.9,46.8,29.96,SW,225,4.7,5.4,96,0.00,,,0.38,WUHU216HW,2012-12-03 19:53:00,
2012-12-03 11:58:00,48.1,47.0,29.96,WSW,248,3.4,5.4,96,0.00,,,0.38,WUHU216HW,2012-12-03 19:58:00,
2012-12-03 12:03:00,48.1,47.0,29.96,WSW,248,0.2,4.0,96,0.00,,,0.38,WUHU216HW,2012-12-03 20:03:00,
2012-12-03 12:08:00,48.1,47.0,29.96,SSE,158,0.4,4.7,96,0.00,,,0.38,WUHU216HW,2012-12-03 20:08:00,
2012-12-03 12:13:00,48.1,47.0,29.96,SSW,203,1.3,4.7,96,0.00,,,0.38,WUHU216HW,2012-12-03 20:13:00,
2012-12-03 12:18:00,48.1,47.0,29.96,SW,225,4.7,6.7,96,0.00,,,0.38,WUHU216HW,2012-12-03 20:18:00,
2012-12-03 12:23:00,48.1,47.0,29.95,WSW,248,0.4,6.7,96,0.00,,,0.38,WUHU216HW,2012-12-03 20:23:00,
2012-12-03 12:28:00,48.1,47.0,29.96,SSW,203,0.0,4.7,96,0.01,,,0.39,WUHU216HW,2012-12-03 20:28:00,
2012-12-03 12:33:00,48.2,47.2,29.96,NE,45,0.4,3.1,96,0.01,,,0.39,WUHU216HW,2012-12-03 20:33:00,
2012-12-03 12:38:00,48.2,47.2,29.95,East,90,0.4,3.1,96,0.01,,,0.39,WUHU216HW,2012-12-03 20:38:00,
2012-12-03 12:43:00,48.4,47.4,29.95,South,180,0.2,2.0,96,0.01,,,0.39,WUHU216HW,2012-12-03 20:43:00,
2012-12-03 12:48:00,48.4,47.4,29.95,SSW,203,2.0,2.9,96,0.01,,,0.39,WUHU216HW,2012-12-03 20:48:00,
2012-12-03 12:53:00,48.4,47.4,29.95,South,180,0.4,3.8,96,0.01,,,0.39,WUHU216HW,2012-12-03 20:53:00,
2012-12-03 12:58:00,48.4,47.4,29.95,South,180,0.4,3.8,96,0.01,,,0.39,WUHU216HW,2012-12-03 20:58:00,
2012-12-03 13:03:00,48.2,47.2,29.95,SW,225,2.2,3.4,96,0.01,,,0.39,WUHU216HW,2012-12-03 21:03:00,
2012-12-03 13:08:00,48.2,47.2,29.94,West,270,0.0,2.2,96,0.01,,,0.39,WUHU216HW,2012-12-03 21:08:00,
2012-12-03 13:13:00,48.2,47.2,29.94,SSW,203,1.8,3.6,96,0.01,,,0.39,WUHU216HW,2012-12-03 21:13:00,
2012-12-03 13:18:00,48.2,47.2,29.94,NNE,23,0.7,3.6,96,0.01,,,0.39,WUHU216HW,2012-12-03 21:18:00,
2012-12-03 13:23:00,48.2,47.2,29.94,ENE,68,0.7,4.7,96,0.02,,,0.40,WUHU216HW,2012-12-03 21:23:00,
2012-12-03 13:28:00,48.2,47.2,29.94,WSW,248,0.4,4.7,96,0.01,,,0.40,WUHU216HW,2012-12-03 21:28:00,
2012-12-03 13:33:00,48.1,47.0,29.93,SW,225,0.2,1.8,96,0.01,,,0.40,WUHU216HW,2012-12-03 21:33:00,
2012-12-03 13:38:00,48.1,47.0,29.93,SSW,203,0.2,1.3,96,0.01,,,0.40,WUHU216HW,2012-12-03 21:38:00,
2012-12-03 13:43:00,48.1,47.0,29.93,SW,225,0.4,2.9,96,0.01,,,0.40,WUHU216HW,2012-12-03 21:43:00,
2012-12-03 13:48:00,48.2,47.2,29.93,SSW,203,0.4,2.9,96,0.02,,,0.41,WUHU216HW,2012-12-03 21:48:00,
2012-12-03 13:53:00,48.1,47.0,29.93,NE,45,1.1,1.1,96,0.02,,,0.41,WUHU216HW,2012-12-03 21:53:00,
2012-12-03 13:58:00,48.2,47.2,29.92,NW,315,0.4,2.2,96,0.03,,,0.42,WUHU216HW,2012-12-03 21:58:00,
2012-12-03 14:03:00,48.1,47.0,29.92,NE,45,1.1,3.8,96,0.03,,,0.42,WUHU216HW,2012-12-03 22:03:00,
2012-12-03 14:08:00,48.1,47.0,29.92,North,0,2.5,3.8,96,0.03,,,0.42,WUHU216HW,2012-12-03 22:08:00,
2012-12-03 14:13:00,48.1,47.0,29.92,WSW,248,0.4,2.5,96,0.03,,,0.42,WUHU216HW,2012-12-03 22:13:00,
2012-12-03 14:18:00,48.1,47.0,29.91,North,0,0.4,2.5,96,0.03,,,0.42,WUHU216HW,2012-12-03 22:18:00,
2012-12-03 14:23:00,48.1,47.0,29.91,NE,45,0.4,1.6,96,0.02,,,0.42,WUHU216HW,2012-12-03 22:23:00,
2012-12-03 14:28:00,48.1,47.0,29.91,SW,225,0.0,1.6,96,0.02,,,0.42,WUHU216HW,2012-12-03 22:28:00,
2012-12-03 14:33:00,48.1,47.0,29.91,NNW,338,0.4,2.0,96,0.02,,,0.42,WUHU216HW,2012-12-03 22:33:00,
2012-12-03 14:38:00,48.1,47.0,29.91,North,0,0.9,2.0,96,0.02,,,0.42,WUHU216HW,2012-12-03 22:38:00,
2012-12-03 14:43:00,48.1,47.0,29.91,ENE,68,0.4,0.9,96,0.02,,,0.42,WUHU216HW,2012-12-03 22:43:00,
2012-12-03 14:48:00,48.1,47.0,29.91,North,0,0.0,1.8,96,0.01,,,0.42,WUHU216HW,2012-12-03 22:48:00,
2012-12-03 14:53:00,47.9,46.8,29.91,NE,45,1.3,1.8,96,0.01,,,0.43,WUHU216HW,2012-12-03 22:53:00,
2012-12-03 14:58:00,47.9,46.8,29.91,NNE,23,1.1,3.1,96,0.02,,,0.44,WUHU216HW,2012-12-03 22:58:00,
2012-12-03 15:03:00,47.9,46.8,29.91,WNW,293,1.1,3.1,96,0.02,,,0.44,WUHU216HW,2012-12-03 23:03:00,
2012-12-03 15:09:00,47.9,46.8,29.91,SW,225,0.2,2.0,96,0.02,,,0.44,WUHU216HW,2012-12-03 23:09:00,
2012-12-03 15:14:00,47.9,46.8,29.91,SE,135,1.3,2.5,96,0.03,,,0.45,WUHU216HW,2012-12-03 23:14:00,
2012-12-03 15:19:00,47.9,46.8,29.91,ENE,68,1.6,2.5,96,0.03,,,0.45,WUHU216HW,2012-12-03 23:19:00,
2012-12-03 15:24:00,47.9,46.8,29.91,NE,45,0.4,2.2,96,0.04,,,0.46,WUHU216HW,2012-12-03 23:24:00,
2012-12-03 15:29:00,47.9,46.8,29.91,SW,225,1.1,2.2,96,0.04,,,0.46,WUHU216HW,2012-12-03 23:29:00,
2012-12-03 15:34:00,47.7,46.6,29.90,SSW,203,0.9,3.6,96,0.05,,,0.48,WUHU216HW,2012-12-03 23:34:00,
2012-12-03 15:39:00,47.7,46.6,29.90,ENE,68,1.1,3.6,96,0.05,,,0.48,WUHU216HW,2012-12-03 23:39:00,
2012-12-03 15:44:00,47.7,46.6,29.90,ENE,68,0.9,2.7,96,0.06,,,0.48,WUHU216HW,2012-12-03 23:44:00,
2012-12-03 15:49:00,47.7,46.6,29.90,NW,315,0.4,2.7,96,0.05,,,0.48,WUHU216HW,2012-12-03 23:49:00,
2012-12-03 15:54:00,47.9,46.8,29.90,NE,45,0.0,1.6,96,0.05,,,0.48,WUHU216HW,2012-12-03 23:54:00,
2012-12-03 15:59:00,47.9,46.8,29.90,NE,45,1.8,3.4,96,0.05,,,0.50,WUHU216HW,2012-12-03 23:59:00,
2012-12-03 16:04:00,47.7,46.6,29.89,SW,225,0.7,3.4,96,0.05,,,0.50,WUHU216HW,2012-12-04 00:04:00,
2012-12-03 16:09:00,47.9,46.8,29.89,NE,45,0.2,2.7,96,0.04,,,0.50,WUHU216HW,2012-12-04 00:09:00,
2012-12-03 16:14:00,47.7,46.6,29.89,NW,315,0.9,2.7,96,0.04,,,0.50,WUHU216HW,2012-12-04 00:14:00,
2012-12-03 16:19:00,47.7,46.6,29.89,SSW,203,1.6,2.0,96,0.04,,,0.50,WUHU216HW,2012-12-04 00:19:00,
2012-12-03 16:24:00,47.7,46.6,29.89,WSW,248,1.1,3.4,96,0.04,,,0.50,WUHU216HW,2012-12-04 00:24:00,
2012-12-03 16:29:00,47.7,46.6,29.89,WSW,248,1.1,3.4,96,0.03,,,0.50,WUHU216HW,2012-12-04 00:29:00,
2012-12-03 16:34:00,47.7,46.6,29.89,SW,225,1.1,1.8,96,0.04,,,0.51,WUHU216HW,2012-12-04 00:34:00,
2012-12-03 16:39:00,47.7,46.6,29.89,SW,225,1.1,2.5,96,0.04,,,0.51,WUHU216HW,2012-12-04 00:39:00,
2012-12-03 16:44:00,47.7,46.6,29.88,SSW,203,0.9,2.5,96,0.04,,,0.52,WUHU216HW,2012-12-04 00:44:00,
2012-12-03 16:49:00,47.7,46.6,29.88,South,180,0.4,2.7,96,0.04,,,0.52,WUHU216HW,2012-12-04 00:49:00,
2012-12-03 16:54:00,47.7,46.6,29.88,NNW,338,0.4,2.7,96,0.03,,,0.52,WUHU216HW,2012-12-04 00:54:00,
2012-12-03 16:59:00,47.7,46.6,29.87,NNW,338,0.0,1.8,96,0.03,,,0.52,WUHU216HW,2012-12-04 00:59:00,
2012-12-03 17:04:00,47.9,46.8,29.87,South,180,1.8,2.9,96,0.03,,,0.52,WUHU216HW,2012-12-04 01:04:00,
2012-12-03 17:09:00,47.7,46.6,29.87,NNW,338,1.1,2.9,96,0.03,,,0.52,WUHU216HW,2012-12-04 01:09:00,
2012-12-03 17:14:00,47.7,46.6,29.88,West,270,0.9,1.8,96,0.03,,,0.52,WUHU216HW,2012-12-04 01:14:00,
2012-12-03 17:19:00,47.7,46.6,29.87,SW,225,3.4,3.4,96,0.03,,,0.52,WUHU216HW,2012-12-04 01:19:00,
2012-12-03 17:24:00,47.7,46.6,29.87,NW,315,0.9,3.4,96,0.02,,,0.52,WUHU216HW,2012-12-04 01:24:00,
2012-12-03 17:29:00,47.7,46.6,29.87,East,90,2.0,3.4,96,0.02,,,0.52,WUHU216HW,2012-12-04 01:29:00,
2012-12-03 17:34:00,47.5,46.4,29.87,WNW,293,0.9,3.4,96,0.01,,,0.52,WUHU216HW,2012-12-04 01:34:00,
2012-12-03 17:39:00,47.5,46.4,29.87,East,90,0.9,3.4,96,0.01,,,0.52,WUHU216HW,2012-12-04 01:39:00,
2012-12-03 17:44:00,47.5,46.4,29.87,SW,225,0.0,2.5,96,0.00,,,0.52,WUHU216HW,2012-12-04 01:44:00,
2012-12-03 17:49:00,47.5,46.4,29.87,SW,225,1.6,2.7,96,0.00,,,0.52,WUHU216HW,2012-12-04 01:49:00,
2012-12-03 17:54:00,47.5,46.4,29.86,West,270,1.1,3.6,96,0.01,,,0.53,WUHU216HW,2012-12-04 01:54:00,
2012-12-03 17:59:00,47.5,46.4,29.86,NNE,23,0.2,3.6,96,0.01,,,0.53,WUHU216HW,2012-12-04 01:59:00,
2012-12-03 18:04:00,47.5,46.4,29.86,East,90,2.0,2.0,96,0.01,,,0.53,WUHU216HW,2012-12-04 02:04:00,
2012-12-03 18:09:00,47.5,46.4,29.85,WSW,248,0.7,2.5,96,0.01,,,0.53,WUHU216HW,2012-12-04 02:09:00,
2012-12-03 18:14:00,47.5,46.4,29.85,WSW,248,1.1,2.5,96,0.01,,,0.53,WUHU216HW,2012-12-04 02:14:00,
2012-12-03 18:19:00,47.5,46.4,29.85,West,270,0.4,3.4,96,0.01,,,0.53,WUHU216HW,2012-12-04 02:19:00,
2012-12-03 18:24:00,47.3,46.3,29.85,WSW,248,0.4,4.3,96,0.01,,,0.53,WUHU216HW,2012-12-04 02:24:00,
2012-12-03 18:29:00,47.3,46.3,29.85,SSW,203,0.4,4.3,96,0.01,,,0.53,WUHU216HW,2012-12-04 02:29:00,
2012-12-03 18:34:00,47.3,46.3,29.85,WSW,248,0.0,1.3,96,0.01,,,0.53,WUHU216HW,2012-12-04 02:34:00,
2012-12-03 18:39:00,47.3,46.3,29.84,SW,225,1.8,2.9,96,0.01,,,0.53,WUHU216HW,2012-12-04 02:39:00,
2012-12-03 18:44:00,47.3,46.3,29.84,West,270,0.7,3.4,96,0.01,,,0.53,WUHU216HW,2012-12-04 02:44:00,
2012-12-03 18:49:00,47.3,46.3,29.84,South,180,0.7,3.4,96,0.01,,,0.53,WUHU216HW,2012-12-04 02:49:00,
2012-12-03 18:54:00,47.3,46.3,29.84,SSW,203,3.8,4.0,96,0.00,,,0.53,WUHU216HW,2012-12-04 02:54:00,
2012-12-03 18:59:00,47.3,46.3,29.84,WSW,248,0.7,4.0,96,0.00,,,0.53,WUHU216HW,2012-12-04 02:59:00,
2012-12-03 19:04:00,47.3,46.3,29.83,SW,225,0.2,4.7,96,0.00,,,0.53,WUHU216HW,2012-12-04 03:04:00,
2012-12-03 19:09:00,47.2,46.1,29.84,WSW,248,4.0,4.7,96,0.00,,,0.53,WUHU216HW,2012-12-04 03:09:00,
2012-12-03 19:14:00,47.3,46.3,29.84,WSW,248,2.5,4.0,96,0.01,,,0.55,WUHU216HW,2012-12-04 03:14:00,
2012-12-03 19:19:00,47.3,46.3,29.83,SW,225,2.0,4.0,96,0.01,,,0.55,WUHU216HW,2012-12-04 03:19:00,
2012-12-03 19:24:00,47.3,46.3,29.83,WSW,248,1.3,3.8,96,0.01,,,0.55,WUHU216HW,2012-12-04 03:24:00,
2012-12-03 19:29:00,47.3,46.3,29.83,WSW,248,3.4,4.5,96,0.01,,,0.55,WUHU216HW,2012-12-04 03:29:00,
2012-12-03 19:34:00,47.3,46.3,29.83,WSW,248,0.4,4.5,96,0.02,,,0.55,WUHU216HW,2012-12-04 03:34:00,
2012-12-03 19:39:00,47.3,46.3,29.82,South,180,1.3,3.4,96,0.02,,,0.55,WUHU216HW,2012-12-04 03:39:00,
2012-12-03 19:44:00,47.3,46.3,29.81,SW,225,2.5,2.7,96,0.02,,,0.55,WUHU216HW,2012-12-04 03:44:00,
2012-12-03 19:49:00,47.3,46.3,29.81,SW,225,2.0,4.5,96,0.02,,,0.55,WUHU216HW,2012-12-04 03:49:00,
2012-12-03 19:54:00,47.3,46.3,29.81,SW,225,0.4,4.5,96,0.02,,,0.55,WUHU216HW,2012-12-04 03:54:00,
2012-12-03 19:59:00,47.2,46.1,29.80,WSW,248,3.4,4.5,96,0.02,,,0.55,WUHU216HW,2012-12-04 03:59:00,
2012-12-03 20:04:00,47.3,46.3,29.80,SW,225,1.1,3.4,96,0.02,,,0.55,WUHU216HW,2012-12-04 04:04:00,
2012-12-03 20:09:00,47.2,46.1,29.80,West,270,3.1,4.5,96,0.02,,,0.55,WUHU216HW,2012-12-04 04:09:00,
2012-12-03 20:14:00,47.2,46.1,29.79,WSW,248,1.6,4.5,96,0.01,,,0.55,WUHU216HW,2012-12-04 04:14:00,
2012-12-03 20:19:00,47.2,46.1,29.79,WSW,248,0.4,3.1,96,0.01,,,0.55,WUHU216HW,2012-12-04 04:19:00,
2012-12-03 20:24:00,47.2,46.1,29.79,SW,225,3.8,4.7,96,0.01,,,0.55,WUHU216HW,2012-12-04 04:24:00,
2012-12-03 20:29:00,47.3,46.3,29.79,SW,225,2.2,4.7,96,0.00,,,0.55,WUHU216HW,2012-12-04 04:29:00,
2012-12-03 20:34:00,47.2,46.1,29.79,SSW,203,3.4,4.7,96,0.00,,,0.55,WUHU216HW,2012-12-04 04:34:00,
2012-12-03 20:39:00,47.2,46.1,29.78,WSW,248,1.8,4.0,96,0.00,,,0.55,WUHU216HW,2012-12-04 04:39:00,
2012-12-03 20:44:00,47.2,46.1,29.77,WSW,248,1.6,3.8,96,0.00,,,0.55,WUHU216HW,2012-12-04 04:44:00,
2012-12-03 20:49:00,47.2,46.1,29.77,WNW,293,0.0,3.8,96,0.00,,,0.55,WUHU216HW,2012-12-04 04:49:00,
2012-12-03 20:54:00,47.2,46.1,29.76,West,270,0.7,4.0,96,0.00,,,0.55,WUHU216HW,2012-12-04 04:54:00,
2012-12-03 20:59:00,47.2,46.1,29.76,WSW,248,1.3,4.0,96,0.00,,,0.55,WUHU216HW,2012-12-04 04:59:00,
2012-12-03 21:00:00,47.2,46.1,29.76,West,270,1.1,4.0,96,0.00,,,0.55,WUHU216HW,2012-12-04 05:00:00,
2012-12-03 21:02:00,47.2,46.1,29.76,SW,225,3.4,4.0,96,0.00,,,0.55,WUHU216HW,2012-12-04 05:02:00,
2012-12-03 21:03:00,47.2,46.1,29.75,WSW,248,0.4,3.4,96,0.00,,,0.55,WUHU216HW,2012-12-04 05:03:00,
2012-12-03 21:08:00,47.2,46.1,29.74,WSW,248,0.9,3.4,96,0.00,,,0.55,WUHU216HW,2012-12-04 05:08:00,
2012-12-03 21:13:00,47.2,46.1,29.74,SW,225,2.5,3.1,96,0.00,,,0.55,WUHU216HW,2012-12-04 05:13:00,
2012-12-03 21:18:00,47.2,46.1,29.74,WSW,248,3.6,4.3,96,0.00,,,0.55,WUHU216HW,2012-12-04 05:18:00,
2012-12-03 21:23:00,47.2,46.1,29.73,SW,225,0.4,4.3,96,0.00,,,0.55,WUHU216HW,2012-12-04 05:23:00,
2012-12-03 21:28:00,47.2,46.1,29.73,WSW,248,1.1,3.6,96,0.00,,,0.55,WUHU216HW,2012-12-04 05:28:00,
2012-12-03 21:33:00,47.2,46.1,29.72,West,270,1.1,2.5,96,0.00,,,0.55,WUHU216HW,2012-12-04 05:33:00,
2012-12-03 21:38:00,47.2,46.1,29.72,NNW,338,1.1,2.2,96,0.00,,,0.55,WUHU216HW,2012-12-04 05:38:00,
2012-12-03 21:43:00,47.2,45.8,29.72,WNW,293,0.0,2.2,95,0.00,,,0.55,WUHU216HW,2012-12-04 05:43:00,
2012-12-03 21:48:00,47.2,45.8,29.71,West,270,1.3,2.0,95,0.00,,,0.55,WUHU216HW,2012-12-04 05:48:00,
2012-12-03 21:53:00,47.2,45.8,29.71,SSW,203,0.4,2.0,95,0.00,,,0.55,WUHU216HW,2012-12-04 05:53:00,
2012-12-03 21:58:00,47.2,45.8,29.70,NNE,23,0.4,2.5,95,0.00,,,0.55,WUHU216HW,2012-12-04 05:58:00,
2012-12-03 22:03:00,47.2,45.8,29.70,North,0,0.7,2.5,95,0.00,,,0.55,WUHU216HW,2012-12-04 06:03:00,
2012-12-03 22:08:00,47.2,45.8,29.69,North,0,0.0,0.7,95,0.00,,,0.55,WUHU216HW,2012-12-04 06:08:00,
2012-12-03 22:13:00,47.0,45.4,29.69,WSW,248,0.0,1.1,94,0.00,,,0.55,WUHU216HW,2012-12-04 06:13:00,
2012-12-03 22:18:00,47.0,45.4,29.69,WSW,248,0.9,1.3,94,0.00,,,0.55,WUHU216HW,2012-12-04 06:18:00,
2012-12-03 22:23:00,46.8,45.2,29.68,WSW,248,0.7,1.3,94,0.00,,,0.55,WUHU216HW,2012-12-04 06:23:00,
2012-12-03 22:28:00,46.8,45.2,29.68,WSW,248,0.7,1.3,94,0.00,,,0.55,WUHU216HW,2012-12-04 06:28:00,
2012-12-03 22:33:00,46.8,45.2,29.67,West,270,2.2,2.2,94,0.00,,,0.55,WUHU216HW,2012-12-04 06:33:00,
2012-12-03 22:38:00,46.6,45.0,29.67,West,270,1.1,2.5,94,0.00,,,0.55,WUHU216HW,2012-12-04 06:38:00,
2012-12-03 22:43:00,46.6,45.0,29.66,WSW,248,0.0,2.5,94,0.00,,,0.55,WUHU216HW,2012-12-04 06:43:00,
2012-12-03 22:48:00,46.6,45.0,29.66,WSW,248,0.0,1.8,94,0.00,,,0.55,WUHU216HW,2012-12-04 06:48:00,
2012-12-03 22:53:00,46.6,45.0,29.65,WSW,248,1.1,1.3,94,0.01,,,0.57,WUHU216HW,2012-12-04 06:53:00,
2012-12-03 22:58:00,46.6,45.0,29.65,SW,225,0.4,1.3,94,0.01,,,0.57,WUHU216HW,2012-12-04 06:58:00,
2012-12-03 23:03:00,46.6,45.0,29.64,SW,225,0.7,1.3,94,0.01,,,0.57,WUHU216HW,2012-12-04 07:03:00,
2012-12-03 23:08:00,46.6,45.0,29.64,SSW,203,0.7,2.2,94,0.01,,,0.57,WUHU216HW,2012-12-04 07:08:00,
2012-12-03 23:13:00,46.4,44.8,29.64,SW,225,0.9,2.2,94,0.01,,,0.57,WUHU216HW,2012-12-04 07:13:00,
2012-12-03 23:18:00,46.4,45.1,29.64,SW,225,2.2,2.2,95,0.01,,,0.57,WUHU216HW,2012-12-04 07:18:00,
2012-12-03 23:23:00,46.4,44.8,29.64,NW,315,0.0,2.7,94,0.02,,,0.57,WUHU216HW,2012-12-04 07:23:00,
2012-12-03 23:28:00,46.4,45.1,29.64,WSW,248,1.8,2.7,95,0.02,,,0.57,WUHU216HW,2012-12-04 07:28:00,
2012-12-03 23:33:00,46.4,45.1,29.63,WSW,248,1.8,2.7,95,0.03,,,0.59,WUHU216HW,2012-12-04 07:33:00,
2012-12-03 23:38:00,46.4,45.1,29.63,West,270,0.4,2.7,95,0.03,,,0.59,WUHU216HW,2012-12-04 07:38:00,
2012-12-03 23:43:00,46.4,45.1,29.63,WSW,248,2.0,2.7,95,0.04,,,0.60,WUHU216HW,2012-12-04 07:43:00,
2012-12-03 23:48:00,46.4,45.1,29.62,WSW,248,1.1,2.7,95,0.03,,,0.60,WUHU216HW,2012-12-04 07:48:00,
2012-12-03 23:53:00,46.4,45.1,29.62,WSW,248,1.8,2.5,95,0.04,,,0.61,WUHU216HW,2012-12-04 07:53:00,
2012-12-03 23:58:00,46.4,45.1,29.61,WSW,248,1.6,2.5,95,0.04,,,0.61,WUHU216HW,2012-12-04 07:58:00,